This is the latest recevied weather packets stored in our database for station/object KY4GW. If no packets are shown the sender has not sent any weather packets the latest 10 day(s).
| Time | Temp. | Humidity | Pressure | Rain* | Wind** | Luminosity | Snow |
|---|---|---|---|---|---|---|---|
| 1777810314 | 7.22° C | 71% | 1023.1 hPa | 0 mm | - | 123 W/m² | - |
| 1777810009 | 6.67° C | 71% | 1023.1 hPa | 0 mm | - | 110 W/m² | - |
| 1777809707 | 6.11° C | 72% | 1023.1 hPa | 0 mm | - | 97 W/m² | - |
| 1777809404 | 5.56° C | 72% | 1023.1 hPa | 0 mm | - | 87 W/m² | - |
| 1777809102 | 4.44° C | 73% | 1023.1 hPa | 0 mm | - | 78 W/m² | - |
| 1777808800 | 3.89° C | 77% | 1023.1 hPa | 0 mm | - | 69 W/m² | - |
| 1777808496 | 3.33° C | 79% | 1023.1 hPa | 0 mm | - | 60 W/m² | - |
| 1777808194 | 2.22° C | 90% | 1023.1 hPa | 0 mm | - | 52 W/m² | - |
| 1777807892 | 1.11° C | 94% | 1023.1 hPa | 0 mm | - | 43 W/m² | - |
| 1777807590 | 1.11° C | 95% | 1022.8 hPa | 0 mm | - | 35 W/m² | - |
| 1777807287 | 0.56° C | 95% | 1022.8 hPa | 0 mm | - | 30 W/m² | - |
| 1777806983 | 0.56° C | 96% | 1022.8 hPa | 0 mm | - | 30 W/m² | - |
| 1777806679 | -0.56° C | 95% | 1022.8 hPa | 0 mm | - | 25 W/m² | - |
| 1777806375 | -1.11° C | 95% | 1022.8 hPa | 0 mm | - | 19 W/m² | - |
| 1777806073 | -1.11° C | 95% | 1022.8 hPa | 0 mm | - | 12 W/m² | - |
| 1777805768 | -1.67° C | 95% | 1022.4 hPa | 0 mm | - | 9 W/m² | - |
| 1777805466 | -1.11° C | 95% | 1022.4 hPa | 0 mm | - | 6 W/m² | - |
| 1777805164 | -1.67° C | 95% | 1022.4 hPa | 0 mm | - | 4 W/m² | - |
| 1777804862 | -1.67° C | 95% | 1022.4 hPa | 0 mm | - | 3 W/m² | - |
| 1777804559 | -1.67° C | 95% | 1022.4 hPa | 0 mm | - | 2 W/m² | - |
| 1777804256 | -1.67° C | 95% | 1022.8 hPa | 0 mm | - | 1 W/m² | - |
| 1777803954 | -1.11° C | 95% | 1022.8 hPa | 0 mm | - | 0 W/m² | - |
| 1777803650 | -1.11° C | 95% | 1022.8 hPa | 0 mm | - | 0 W/m² | - |
| 1777803346 | -1.11° C | 95% | 1022.8 hPa | 0 mm | - | 0 W/m² | - |
| 1777803044 | -1.11° C | 95% | 1022.1 hPa | 0 mm | - | 0 W/m² | - |
* Rain latest hour (hover to see other rain measurements)
** Current wind speed in m/s (hover to see current wind gust speed)